Time;durP1;ratioP1;P1;durP2;ratioP2;P2;SDS_P1;SDS_P2;PMS_P1;PMS_P2;Temp;Humidity;BMP_temperature;BMP_pressure;BME280_temperature;BME280_humidity;BME280_pressure;Samples;Min_cycle;Max_cycle;Signal;HPM_P1;HPM_P2
2022/06/12 00:01:01;;;;;;;9.00;8.10;;;25.90;62.90;;;;;;5052534;28;20040;-80
2022/06/12 00:03:28;;;;;;;9.77;8.10;;;25.90;63.20;;;;;;5050851;28;20018;-79
2022/06/12 00:05:56;;;;;;;9.77;7.85;;;25.70;62.90;;;;;;5050629;28;20065;-80
2022/06/12 00:08:23;;;;;;;11.70;8.23;;;25.60;63.60;;;;;;5055378;28;20515;-80
2022/06/12 00:10:51;;;;;;;10.00;8.23;;;25.70;63.70;;;;;;5056583;28;20040;-80
2022/06/12 00:13:22;;;;;;;10.38;8.18;;;25.70;63.30;;;;;;5053919;28;20388;-80
2022/06/12 00:15:48;;;;;;;12.07;7.97;;;25.60;63.70;;;;;;5056421;28;20025;-80
2022/06/12 00:18:14;;;;;;;10.32;7.18;;;25.60;63.50;;;;;;5056354;28;20107;-78
2022/06/12 00:20:39;;;;;;;11.25;7.43;;;25.70;63.20;;;;;;5055926;28;20044;-81
2022/06/12 00:23:11;;;;;;;14.02;8.23;;;25.60;64.00;;;;;;5054076;28;20124;-80
2022/06/12 00:25:37;;;;;;;8.13;7.10;;;25.50;63.70;;;;;;5055059;28;20443;-80
2022/06/12 00:28:05;;;;;;;10.88;8.82;;;25.40;64.20;;;;;;5053888;28;20064;-80
2022/06/12 00:30:31;;;;;;;10.20;8.32;;;25.50;63.90;;;;;;5056035;28;20106;-79
2022/06/12 00:32:57;;;;;;;8.75;7.78;;;25.70;63.60;;;;;;5055752;28;20056;-79
2022/06/12 00:35:34;;;;;;;8.88;7.97;;;25.70;63.30;;;;;;5053621;28;20051;-80
2022/06/12 00:38:01;;;;;;;9.13;7.88;;;25.80;62.90;;;;;;5056011;28;20028;-80
2022/06/12 00:40:27;;;;;;;10.38;7.55;;;25.70;63.00;;;;;;5054765;28;20064;-80
2022/06/12 00:42:59;;;;;;;10.07;8.20;;;25.70;62.80;;;;;;5055993;28;20470;-79
2022/06/12 00:45:40;;;;;;;10.80;8.43;;;25.60;63.40;;;;;;5055557;28;20375;-78
2022/06/12 00:48:12;;;;;;;9.57;8.57;;;25.60;63.30;;;;;;5053987;28;20033;-78
2022/06/12 00:50:43;;;;;;;10.77;8.20;;;25.60;63.40;;;;;;5055361;28;20064;-79
2022/06/12 00:53:13;;;;;;;9.18;7.20;;;25.60;64.00;;;;;;5055129;28;20029;-79
2022/06/12 00:55:47;;;;;;;11.90;8.07;;;25.50;63.90;;;;;;5053234;28;20040;-79
2022/06/12 00:58:19;;;;;;;10.07;7.70;;;25.50;63.90;;;;;;5054799;28;20025;-78
2022/06/12 01:00:47;;;;;;;9.35;8.35;;;25.30;63.50;;;;;;5055351;28;20025;-79
2022/06/12 01:03:14;;;;;;;8.88;7.93;;;25.40;63.40;;;;;;5054133;28;20025;-84
2022/06/12 01:08:25;;;;;;;9.65;8.40;;;25.50;63.40;;;;;;5035314;28;20137;-77
2022/06/12 01:10:55;;;;;;;9.25;7.57;;;25.30;63.50;;;;;;5034865;28;20025;-78
2022/06/12 01:13:35;;;;;;;11.23;7.45;;;24.90;64.30;;;;;;5053101;28;20119;-79
2022/06/12 01:16:05;;;;;;;11.80;7.90;;;25.00;64.30;;;;;;5052455;28;20064;-78
2022/06/12 01:18:36;;;;;;;8.02;7.22;;;25.10;63.90;;;;;;5052813;28;20043;-80
2022/06/12 01:21:26;;;;;;;8.82;7.88;;;25.10;64.60;;;;;;5053390;28;20045;-78
2022/06/12 01:23:53;;;;;;;10.63;8.13;;;25.10;64.00;;;;;;5054383;28;20016;-77
2022/06/12 01:26:27;;;;;;;9.75;7.55;;;24.90;64.20;;;;;;5053692;28;20037;-79
2022/06/12 01:29:04;;;;;;;16.85;7.30;;;24.80;64.60;;;;;;5054751;28;20033;-78
2022/06/12 01:31:48;;;;;;;9.23;7.10;;;24.70;64.80;;;;;;5053253;28;20044;-77
2022/06/12 01:34:25;;;;;;;8.85;7.10;;;24.60;65.30;;;;;;5051585;28;20028;-78
2022/06/12 01:37:21;;;;;;;8.90;7.43;;;24.70;65.00;;;;;;5053668;28;20029;-79
2022/06/12 01:40:08;;;;;;;9.18;7.13;;;24.70;64.70;;;;;;5053262;28;20029;-78
2022/06/12 01:42:58;;;;;;;9.30;7.00;;;24.80;64.00;;;;;;5054131;28;20498;-77
2022/06/12 01:45:48;;;;;;;10.68;7.47;;;24.90;63.70;;;;;;5034521;28;20384;-79
2022/06/12 01:48:19;;;;;;;;;;;24.90;64.10;;;;;;5034866;28;20072;-78
2022/06/12 01:51:07;;;;;;;9.50;7.32;;;25.00;63.80;;;;;;5033521;28;20318;-77
2022/06/12 01:54:01;;;;;;;11.25;8.43;;;25.00;64.00;;;;;;5033147;28;20055;-77
2022/06/12 01:56:48;;;;;;;9.98;7.22;;;24.90;64.00;;;;;;5046037;28;20108;-79
2022/06/12 01:59:17;;;;;;;8.88;7.90;;;24.90;64.00;;;;;;5052735;28;20039;-77
2022/06/12 02:01:54;;;;;;;8.48;7.40;;;24.80;63.90;;;;;;5053121;28;20037;-80
2022/06/12 02:04:24;;;;;;;9.13;8.05;;;24.90;63.60;;;;;;5052527;28;20476;-77
2022/06/12 02:06:56;;;;;;;11.88;7.70;;;24.70;64.00;;;;;;5053714;28;20468;-79
2022/06/12 02:09:27;;;;;;;10.50;8.02;;;24.60;64.40;;;;;;5052702;28;20022;-76
2022/06/12 02:15:20;;;;;;;10.23;7.38;;;24.40;65.40;;;;;;5053941;28;20043;-79
2022/06/12 02:18:08;;;;;;;10.90;7.95;;;24.30;65.40;;;;;;5052442;28;20025;-77
2022/06/12 02:20:38;;;;;;;10.70;7.55;;;24.40;65.00;;;;;;5051952;28;20032;-79
2022/06/12 02:23:10;;;;;;;9.35;7.82;;;24.40;65.00;;;;;;5051930;28;20411;-78
2022/06/12 02:25:40;;;;;;;8.25;7.18;;;24.40;65.20;;;;;;5053391;28;20365;-78
2022/06/12 02:28:06;;;;;;;8.95;7.57;;;24.40;64.80;;;;;;5053640;28;20025;-75
2022/06/12 02:30:36;;;;;;;9.43;7.30;;;24.50;64.40;;;;;;5053077;28;20032;-79
2022/06/12 02:33:19;;;;;;;9.60;7.03;;;24.20;65.20;;;;;;5053752;28;20029;-78
2022/06/12 02:35:58;;;;;;;9.63;7.00;;;24.00;65.80;;;;;;5051389;28;20036;-80
2022/06/12 02:38:42;;;;;;;8.95;8.05;;;23.80;66.20;;;;;;5051809;28;20029;-82
2022/06/12 02:41:17;;;;;;;8.68;7.78;;;23.90;65.60;;;;;;5053582;28;20041;-78
2022/06/12 02:43:44;;;;;;;13.25;7.45;;;24.00;65.80;;;;;;5053300;28;20021;-79
2022/06/12 02:46:30;;;;;;;9.02;7.55;;;24.10;65.50;;;;;;5053498;28;20029;-88
2022/06/12 02:48:56;;;;;;;10.50;8.23;;;24.30;64.90;;;;;;5052268;28;20051;-76
2022/06/12 02:51:56;;;;;;;11.18;7.55;;;24.30;65.00;;;;;;5051407;28;20380;-81
2022/06/12 02:54:32;;;;;;;10.23;8.45;;;24.30;65.10;;;;;;5053119;28;20029;-76
2022/06/12 02:57:22;;;;;;;9.73;8.55;;;24.30;64.90;;;;;;5050722;28;20066;-77
2022/06/12 02:59:59;;;;;;;11.48;8.70;;;24.20;65.50;;;;;;5053046;28;20506;-74
2022/06/12 03:02:25;;;;;;;10.18;7.93;;;24.30;65.30;;;;;;5052131;28;20051;-82
2022/06/12 03:05:06;;;;;;;12.30;8.50;;;24.30;64.90;;;;;;5052451;28;20025;-80
2022/06/12 03:07:32;;;;;;;8.85;7.88;;;24.30;64.70;;;;;;5053003;28;20037;-78
2022/06/12 03:10:06;;;;;;;8.82;7.70;;;24.30;64.80;;;;;;5052971;28;20463;-81
2022/06/12 03:12:32;;;;;;;8.32;7.50;;;24.30;64.80;;;;;;5049956;28;20116;-79
2022/06/12 03:15:00;;;;;;;8.68;7.22;;;24.20;65.20;;;;;;5050387;28;20079;-76
2022/06/12 03:17:26;;;;;;;10.70;7.25;;;24.30;64.70;;;;;;5050219;28;20068;-78
2022/06/12 03:19:55;;;;;;;9.73;6.97;;;24.30;65.00;;;;;;5052942;28;20103;-79
2022/06/12 03:22:30;;;;;;;8.43;7.53;;;24.20;65.10;;;;;;5051332;28;20053;-78
2022/06/12 03:25:20;;;;;;;9.77;7.72;;;24.20;65.30;;;;;;5051259;28;20040;-76
2022/06/12 03:27:49;;;;;;;8.23;7.20;;;24.10;65.70;;;;;;5050885;28;20029;-76
2022/06/12 03:30:32;;;;;;;9.52;7.53;;;23.90;65.60;;;;;;5050983;28;20106;-87
2022/06/12 03:33:18;;;;;;;9.82;7.03;;;23.80;65.60;;;;;;5052727;28;20025;-81
2022/06/12 03:36:31;;;;;;;8.77;7.10;;;23.80;66.10;;;;;;5052006;28;20032;-78
2022/06/12 03:39:25;;;;;;;9.45;7.72;;;23.70;66.10;;;;;;5068702;28;20036;-82
2022/06/12 03:41:50;;;;;;;8.80;7.03;;;23.70;66.10;;;;;;5050389;28;20033;-81
2022/06/12 03:44:56;;;;;;;12.05;8.10;;;23.90;65.70;;;;;;5058320;28;20091;-79
2022/06/12 03:47:48;;;;;;;9.77;7.80;;;23.80;66.00;;;;;;5075281;28;20089;-80
2022/06/12 03:50:35;;;;;;;11.30;8.25;;;23.70;66.30;;;;;;5057722;28;20115;-87
2022/06/12 03:53:20;;;;;;;8.23;6.75;;;23.60;67.50;;;;;;5058083;28;20028;-83
2022/06/12 03:58:43;;;;;;;7.50;6.65;;;23.80;66.10;;;;;;5073502;28;20028;-77
2022/06/12 04:01:09;;;;;;;9.30;6.70;;;23.90;66.00;;;;;;5057601;28;20221;-79
2022/06/12 04:03:39;;;;;;;8.50;7.05;;;24.30;65.60;;;;;;5073008;28;20032;-80
2022/06/12 04:06:13;;;;;;;;;;;24.50;65.00;;;;;;5075219;28;20032;-79
2022/06/12 04:08:48;;;;;;;13.95;6.55;;;24.60;64.70;;;;;;5073437;28;19994;-76
2022/06/12 04:11:16;;;;;;;8.85;6.72;;;24.50;64.60;;;;;;5088226;28;20472;-81
2022/06/12 04:13:43;;;;;;;8.77;6.57;;;24.60;65.10;;;;;;5056346;28;20491;-75
2022/06/12 04:16:19;;;;;;;6.72;6.03;;;24.40;65.10;;;;;;5054656;28;20025;-80
2022/06/12 04:18:45;;;;;;;6.90;6.20;;;24.30;65.40;;;;;;5055178;28;20033;-78
2022/06/12 04:21:23;;;;;;;7.43;6.63;;;24.40;65.10;;;;;;5052505;28;20104;-78
2022/06/12 04:23:57;;;;;;;7.00;6.30;;;24.40;64.80;;;;;;5056326;28;20100;-81
2022/06/12 04:26:34;;;;;;;8.10;6.22;;;24.40;65.00;;;;;;5055099;28;20021;-82
2022/06/12 04:29:18;;;;;;;7.50;6.70;;;24.10;65.50;;;;;;5056029;28;20024;-79
2022/06/12 04:31:47;;;;;;;7.47;6.38;;;24.10;65.60;;;;;;5056107;28;20036;-88
2022/06/12 04:34:26;;;;;;;8.13;7.20;;;24.10;65.80;;;;;;5053387;28;20406;-78
2022/06/12 04:36:58;;;;;;;8.90;6.90;;;23.90;66.50;;;;;;5056051;28;20025;-78
2022/06/12 04:39:29;;;;;;;7.55;6.07;;;24.10;66.70;;;;;;5054458;28;20108;-77
2022/06/12 04:41:55;;;;;;;9.07;6.57;;;24.00;66.40;;;;;;5054035;28;20090;-86
2022/06/12 04:44:22;;;;;;;8.23;6.80;;;24.10;66.30;;;;;;5055792;28;20033;-75
2022/06/12 04:46:52;;;;;;;9.85;6.68;;;24.00;66.30;;;;;;5054866;28;20051;-78
2022/06/12 04:49:23;;;;;;;11.13;6.72;;;24.00;67.20;;;;;;5054885;28;20026;-78
2022/06/12 04:51:50;;;;;;;8.70;6.38;;;24.30;66.50;;;;;;5055041;28;20198;-80
2022/06/12 04:54:16;;;;;;;7.65;6.63;;;24.30;66.50;;;;;;5054977;28;20029;-78
2022/06/12 04:56:43;;;;;;;7.38;6.20;;;24.20;66.90;;;;;;5054475;28;20052;-84
2022/06/12 04:59:11;;;;;;;9.57;5.90;;;24.30;66.40;;;;;;5053197;28;20115;-80
2022/06/12 05:01:37;;;;;;;6.82;5.90;;;24.40;66.10;;;;;;5086061;28;20508;-77
2022/06/12 05:04:05;;;;;;;7.72;5.20;;;24.80;65.90;;;;;;5053406;28;20029;-76
2022/06/12 05:06:31;;;;;;;7.38;5.60;;;25.00;65.20;;;;;;5055020;28;20029;-81
2022/06/12 05:08:57;;;;;;;9.07;5.30;;;25.00;63.80;;;;;;5054838;28;20025;-78
2022/06/12 05:11:23;;;;;;;7.72;5.53;;;25.00;63.90;;;;;;5053076;28;20033;-77
2022/06/12 05:13:49;;;;;;;11.20;5.80;;;25.30;63.60;;;;;;5054159;28;20047;-76
2022/06/12 05:16:26;;;;;;;9.57;6.10;;;25.60;63.10;;;;;;5054631;28;20376;-80
2022/06/12 05:18:51;;;;;;;6.70;5.28;;;25.90;63.10;;;;;;5054245;28;20024;-79
2022/06/12 05:21:18;;;;;;;8.73;5.47;;;25.90;62.30;;;;;;5053618;28;20045;-76
2022/06/12 05:23:44;;;;;;;7.35;5.07;;;26.00;62.30;;;;;;5052629;28;20078;-79
2022/06/12 05:26:15;;;;;;;9.93;5.18;;;26.20;61.60;;;;;;5052297;28;20414;-76
2022/06/12 05:28:40;;;;;;;5.20;4.38;;;26.30;61.10;;;;;;5051736;28;20395;-76
2022/06/12 05:31:08;;;;;;;7.97;5.15;;;26.50;61.40;;;;;;5055295;28;20017;-78
2022/06/12 05:33:34;;;;;;;6.57;4.88;;;26.50;61.20;;;;;;5050759;28;20052;-81
2022/06/12 05:35:59;;;;;;;5.35;4.22;;;26.60;60.00;;;;;;5046044;28;20542;-82
2022/06/12 05:38:25;;;;;;;6.05;4.28;;;26.60;59.60;;;;;;5050916;28;20025;-75
2022/06/12 05:40:51;;;;;;;5.13;4.25;;;26.60;59.20;;;;;;5051927;28;20025;-78
2022/06/12 05:43:17;;;;;;;6.25;3.95;;;26.50;59.20;;;;;;5052097;28;20018;-81
2022/06/12 05:45:44;;;;;;;7.07;4.35;;;26.50;59.50;;;;;;5036802;28;20025;-77
2022/06/12 05:48:16;;;;;;;5.25;3.97;;;26.80;59.70;;;;;;5048856;28;20021;-78
2022/06/12 05:51:00;;;;;;;8.50;4.25;;;27.00;58.30;;;;;;5056891;28;20028;-80
2022/06/12 05:53:29;;;;;;;5.00;3.75;;;27.10;59.40;;;;;;5052231;28;20033;-79
2022/06/12 05:55:55;;;;;;;7.22;4.53;;;27.10;58.10;;;;;;5055792;28;20127;-78
2022/06/12 05:58:24;;;;;;;6.55;4.20;;;27.50;58.90;;;;;;5065889;28;20028;-79
2022/06/12 06:00:50;;;;;;;5.10;3.92;;;27.50;57.00;;;;;;5053240;28;20387;-76
2022/06/12 06:03:16;;;;;;;5.72;4.13;;;27.90;57.50;;;;;;5053736;28;20175;-80
2022/06/12 06:05:51;;;;;;;5.81;3.80;;;28.00;57.40;;;;;;4645261;28;10002809;-81
2022/06/12 06:08:17;;;;;;;5.13;3.70;;;28.10;57.50;;;;;;5049936;28;20029;-79
2022/06/12 06:10:43;;;;;;;5.70;3.45;;;28.30;56.90;;;;;;5049267;28;20025;-77
2022/06/12 06:13:10;;;;;;;6.53;4.03;;;28.00;56.80;;;;;;5082114;28;20175;-77
2022/06/12 06:15:37;;;;;;;6.18;3.90;;;27.80;57.60;;;;;;5048890;28;20086;-80
2022/06/12 06:18:04;;;;;;;5.32;3.67;;;28.10;57.30;;;;;;5050396;28;20036;-80
2022/06/12 06:20:36;;;;;;;5.60;3.83;;;28.30;56.70;;;;;;5048510;28;20173;-88
2022/06/12 06:23:02;;;;;;;6.03;3.55;;;28.40;56.40;;;;;;5055161;28;20041;-78
2022/06/12 06:25:29;;;;;;;7.15;3.90;;;28.40;56.30;;;;;;5052775;28;20029;-82
2022/06/12 06:27:56;;;;;;;5.03;3.80;;;28.20;56.80;;;;;;5050136;28;20017;-78
2022/06/12 06:30:23;;;;;;;5.93;3.80;;;28.20;56.20;;;;;;5052762;28;20029;-84
2022/06/12 06:32:50;;;;;;;5.85;4.10;;;28.20;56.50;;;;;;5053619;28;20390;-79
2022/06/12 06:35:17;;;;;;;8.52;4.07;;;28.40;56.60;;;;;;5051735;28;20029;-78
2022/06/12 06:37:43;;;;;;;4.63;3.40;;;28.70;56.80;;;;;;5052162;28;20037;-80
2022/06/12 06:40:12;;;;;;;5.18;3.75;;;28.70;56.50;;;;;;5052345;28;20439;-78
2022/06/12 06:42:37;;;;;;;6.57;4.15;;;28.50;56.30;;;;;;5053469;28;20041;-75
2022/06/12 06:47:48;;;;;;;5.80;3.83;;;28.80;56.80;;;;;;5051160;28;20132;-78
2022/06/12 06:50:16;;;;;;;6.47;3.90;;;29.20;56.00;;;;;;5055698;28;20017;-78
2022/06/12 06:52:42;;;;;;;6.35;3.90;;;29.10;55.70;;;;;;5051878;28;20037;-78
2022/06/12 06:55:08;;;;;;;5.32;3.92;;;29.60;56.80;;;;;;5050462;28;20025;-76
2022/06/12 06:57:40;;;;;;;5.10;3.67;;;29.60;55.10;;;;;;5057644;28;20029;-83
2022/06/12 07:00:09;;;;;;;6.38;4.32;;;29.70;55.40;;;;;;5052135;28;20013;-81
2022/06/12 07:02:39;;;;;;;11.63;4.22;;;30.00;55.80;;;;;;5051508;28;20029;-80
2022/06/12 07:05:05;;;;;;;4.47;3.63;;;29.80;54.80;;;;;;5053783;28;20100;-80
2022/06/12 07:07:32;;;;;;;6.03;3.80;;;29.60;55.60;;;;;;5048844;28;20292;-82
2022/06/12 07:09:59;;;;;;;4.43;3.60;;;29.80;55.50;;;;;;4700450;28;9999647;-87
2022/06/12 07:12:24;;;;;;;5.00;3.42;;;29.80;55.80;;;;;;5043104;28;20027;-85
2022/06/12 07:14:50;;;;;;;6.40;3.83;;;29.70;55.50;;;;;;5057916;28;20597;-81
2022/06/12 07:17:16;;;;;;;5.30;4.35;;;29.70;56.10;;;;;;5071914;28;20028;-79
2022/06/12 07:19:42;;;;;;;6.30;3.80;;;29.70;55.80;;;;;;5070990;28;20479;-82
2022/06/12 07:22:08;;;;;;;5.65;3.75;;;29.90;55.80;;;;;;5070739;28;20054;-78
2022/06/12 07:24:33;;;;;;;5.97;3.65;;;30.10;55.80;;;;;;5072291;28;20025;-82
2022/06/12 07:26:59;;;;;;;6.35;3.95;;;30.20;56.20;;;;;;5072341;28;20480;-83
2022/06/12 07:29:25;;;;;;;6.03;3.72;;;30.30;55.00;;;;;;5071262;28;20024;-81
2022/06/12 07:31:51;;;;;;;6.82;4.10;;;30.30;54.90;;;;;;5070511;28;20017;-83
2022/06/12 07:34:17;;;;;;;5.93;3.88;;;30.30;55.40;;;;;;5070302;28;20066;-80
2022/06/12 07:36:45;;;;;;;5.60;3.72;;;30.30;55.50;;;;;;5072129;28;20066;-82
2022/06/12 07:39:16;;;;;;;4.15;3.40;;;30.40;55.80;;;;;;5071283;28;20107;-85
2022/06/12 07:41:43;;;;;;;5.80;3.63;;;30.20;54.20;;;;;;5067229;28;20076;-81
2022/06/12 07:44:10;;;;;;;4.78;3.28;;;30.10;56.10;;;;;;5052050;28;20460;-81
2022/06/12 07:46:36;;;;;;;7.57;4.03;;;29.70;55.50;;;;;;5050451;28;20112;-81
2022/06/12 07:49:02;;;;;;;8.10;3.70;;;29.40;57.20;;;;;;5050516;28;20092;-84
2022/06/12 07:51:29;;;;;;;8.13;4.00;;;29.50;57.10;;;;;;5049807;28;20120;-86
2022/06/12 07:53:54;;;;;;;6.22;3.42;;;30.00;56.70;;;;;;5067101;28;20021;-89
2022/06/12 07:56:22;;;;;;;5.00;3.40;;;30.30;55.00;;;;;;5071690;28;20032;-78
2022/06/12 07:58:48;;;;;;;7.47;3.50;;;30.30;55.40;;;;;;5072016;28;20021;-84
2022/06/12 08:01:16;;;;;;;7.32;3.53;;;30.40;56.50;;;;;;5071773;28;20368;-85
2022/06/12 08:03:42;;;;;;;6.00;3.80;;;30.60;55.60;;;;;;5071985;28;20386;-93
2022/06/12 08:06:09;;;;;;;7.63;3.60;;;31.00;55.90;;;;;;5072468;28;20024;-89
2022/06/12 08:08:37;;;;;;;4.88;3.33;;;31.00;55.50;;;;;;5072094;28;20075;-81
2022/06/12 08:11:03;;;;;;;7.63;4.13;;;31.10;55.00;;;;;;5072169;28;20650;-88
2022/06/12 08:13:30;;;;;;;4.47;3.38;;;30.80;55.80;;;;;;5057837;28;20387;-91
2022/06/12 08:15:57;;;;;;;4.57;3.15;;;29.90;55.70;;;;;;5051560;28;20025;-90
2022/06/12 08:18:24;;;;;;;4.30;3.30;;;29.60;57.30;;;;;;5051548;28;20098;-87
2022/06/12 08:20:54;;;;;;;5.85;3.42;;;30.10;57.30;;;;;;5051593;28;20043;-87
2022/06/12 08:23:32;;;;;;;;;;;30.60;56.00;;;;;;5052011;28;20123;-85
2022/06/12 08:26:00;;;;;;;5.45;3.55;;;31.00;55.70;;;;;;5050621;28;20003;-89
2022/06/12 08:28:28;;;;;;;5.60;3.53;;;30.90;55.60;;;;;;5051346;28;20418;-85
2022/06/12 08:30:55;;;;;;;5.13;3.70;;;31.10;54.90;;;;;;5053285;28;20017;-82
2022/06/12 08:33:21;;;;;;;9.02;3.67;;;31.00;54.40;;;;;;5054173;28;20028;-82
2022/06/12 08:35:50;;;;;;;5.43;3.38;;;31.10;55.00;;;;;;5054353;28;20499;-90
2022/06/12 08:38:16;;;;;;;6.70;3.42;;;31.30;55.50;;;;;;5054752;28;20064;-89
2022/06/12 08:41:07;;;;;;;4.70;3.28;;;31.40;55.20;;;;;;5055161;28;20112;-90
2022/06/12 08:43:51;;;;;;;7.30;3.30;;;31.60;55.30;;;;;;5054824;28;20543;-78
2022/06/12 08:46:32;;;;;;;5.00;3.40;;;31.80;54.20;;;;;;5056567;28;20053;-90
2022/06/12 08:49:23;;;;;;;7.07;3.63;;;32.00;53.80;;;;;;5055206;28;20533;-91
2022/06/12 08:52:07;;;;;;;8.68;3.40;;;31.90;54.00;;;;;;5054937;28;20035;-85
2022/06/12 08:54:37;;;;;;;6.28;3.22;;;31.70;54.10;;;;;;5055013;28;20033;-82
2022/06/12 08:57:09;;;;;;;5.35;3.40;;;31.70;53.80;;;;;;5054863;28;20021;-88
2022/06/12 08:59:59;;;;;;;10.10;3.25;;;31.60;53.90;;;;;;5054825;28;20112;-81
2022/06/12 09:02:29;;;;;;;5.85;3.35;;;31.50;54.00;;;;;;5054356;28;20040;-79
2022/06/12 09:04:55;;;;;;;7.35;3.40;;;31.60;54.30;;;;;;5054433;28;20052;-88
2022/06/12 09:07:41;;;;;;;6.10;3.20;;;31.70;52.50;;;;;;5054768;28;20107;-85
2022/06/12 09:10:14;;;;;;;4.68;3.42;;;31.90;53.00;;;;;;5054677;28;20028;-90
2022/06/12 09:12:49;;;;;;;4.90;3.13;;;31.90;53.60;;;;;;5055636;28;20033;-83
2022/06/12 09:15:34;;;;;;;5.50;3.10;;;31.80;53.00;;;;;;5055905;28;20122;-80
2022/06/12 09:18:28;;;;;;;6.13;3.30;;;31.80;53.60;;;;;;5054261;28;20088;-85
2022/06/12 09:21:38;;;;;;;5.68;2.95;;;32.00;54.30;;;;;;5054965;28;20025;-90
2022/06/12 09:24:42;;;;;;;6.25;3.35;;;32.20;53.10;;;;;;5050805;28;20039;-86
2022/06/12 09:27:11;;;;;;;5.00;3.20;;;31.80;53.60;;;;;;5047439;28;20388;-83
2022/06/12 09:29:47;;;;;;;4.57;3.00;;;31.90;53.40;;;;;;5050249;28;20037;-89
2022/06/12 09:32:29;;;;;;;6.18;3.30;;;31.90;53.60;;;;;;5016716;28;20032;-83
2022/06/12 09:35:12;;;;;;;3.58;3.00;;;31.90;53.60;;;;;;5016776;28;20038;-83
2022/06/12 09:38:18;;;;;;;5.55;3.33;;;32.00;53.50;;;;;;5016772;28;20025;-93
2022/06/12 09:41:03;;;;;;;4.55;3.15;;;32.20;52.90;;;;;;5016805;28;20064;-88
2022/06/12 09:44:12;;;;;;;9.18;3.30;;;32.40;53.30;;;;;;5032955;28;20043;-92
2022/06/12 09:47:05;;;;;;;3.88;2.97;;;32.50;53.20;;;;;;4990468;28;20138;-91
2022/06/12 09:50:09;;;;;;;7.13;3.40;;;32.60;52.70;;;;;;4957885;28;20504;-86
2022/06/12 09:52:38;;;;;;;4.60;3.10;;;32.40;51.40;;;;;;4271403;28;10000719;-86
2022/06/12 09:55:10;;;;;;;4.57;3.30;;;32.60;52.10;;;;;;4989276;28;20030;-86
2022/06/12 09:57:44;;;;;;;4.10;3.05;;;32.70;51.50;;;;;;4957195;28;20050;-86
2022/06/12 10:00:23;;;;;;;5.78;3.40;;;32.50;51.10;;;;;;4990412;28;20027;-87
2022/06/12 10:03:00;;;;;;;9.77;3.70;;;32.80;51.20;;;;;;4957846;28;20071;-82
2022/06/12 10:05:34;;;;;;;4.53;3.00;;;32.40;51.00;;;;;;4990315;28;20022;-90
2022/06/12 10:08:15;;;;;;;3.90;3.00;;;32.10;52.20;;;;;;4989906;28;20019;-89
2022/06/12 10:10:59;;;;;;;5.30;3.13;;;32.50;52.90;;;;;;4990170;28;20038;-88
2022/06/12 10:13:34;;;;;;;4.50;3.25;;;32.90;52.00;;;;;;4990300;28;20525;-83
2022/06/12 10:16:07;;;;;;;4.63;3.03;;;33.10;52.10;;;;;;4957210;28;20035;-87
2022/06/12 10:18:59;;;;;;;6.82;3.08;;;33.20;50.70;;;;;;4957520;28;20473;-82
2022/06/12 10:21:27;;;;;;;6.07;3.20;;;33.30;50.60;;;;;;4978259;28;20455;-85
2022/06/12 10:23:53;;;;;;;7.25;3.25;;;33.10;51.00;;;;;;5054397;28;20021;-86
2022/06/12 10:26:30;;;;;;;4.95;2.97;;;32.80;50.70;;;;;;5053111;28;20085;-87
2022/06/12 10:29:14;;;;;;;7.88;3.40;;;32.90;51.30;;;;;;5053396;28;20033;-88
2022/06/12 10:31:55;;;;;;;5.68;3.30;;;33.00;51.00;;;;;;5052780;28;20017;-79
2022/06/12 10:34:24;;;;;;;12.10;3.58;;;33.30;50.30;;;;;;5053935;28;20025;-83
2022/06/12 10:36:52;;;;;;;4.72;3.35;;;33.30;50.60;;;;;;5052458;28;20024;-82
2022/06/12 10:39:21;;;;;;;5.05;3.10;;;33.40;52.00;;;;;;5053740;28;20057;-84
2022/06/12 10:41:58;;;;;;;4.93;3.10;;;33.60;51.20;;;;;;5053068;28;20037;-87
2022/06/12 10:44:53;;;;;;;5.40;3.00;;;33.60;50.30;;;;;;5052925;28;20033;-82
2022/06/12 10:47:23;;;;;;;7.00;3.50;;;33.20;50.60;;;;;;5052750;28;20487;-84
2022/06/12 10:50:15;;;;;;;4.00;3.08;;;33.40;50.90;;;;;;5052510;28;20032;-82
2022/06/12 10:52:58;;;;;;;6.80;3.30;;;33.80;51.10;;;;;;5052669;28;20027;-85
2022/06/12 10:55:33;;;;;;;4.90;3.10;;;34.00;49.90;;;;;;5052925;28;20424;-82
2022/06/12 10:58:26;;;;;;;7.90;3.50;;;33.90;50.20;;;;;;5053721;28;20044;-83
2022/06/12 11:00:56;;;;;;;3.90;2.95;;;33.90;50.20;;;;;;5052508;28;20511;-81
2022/06/12 11:03:51;;;;;;;4.68;3.20;;;34.00;49.30;;;;;;5054080;28;20036;-84
2022/06/12 11:06:54;;;;;;;4.38;3.20;;;34.10;49.80;;;;;;5053423;28;20541;-84
2022/06/12 11:09:26;;;;;;;4.65;3.42;;;34.00;49.20;;;;;;5052521;28;20029;-82
2022/06/12 11:12:10;;;;;;;7.78;3.20;;;34.30;49.70;;;;;;5052009;28;20536;-81
2022/06/12 11:14:48;;;;;;;6.75;3.53;;;34.50;49.60;;;;;;5052504;28;20039;-82
2022/06/12 11:17:38;;;;;;;6.93;3.17;;;33.70;49.40;;;;;;5052111;28;20017;-81
2022/06/12 11:20:31;;;;;;;4.95;3.20;;;33.60;50.40;;;;;;5052558;28;20032;-86
2022/06/12 11:23:18;;;;;;;4.40;3.40;;;33.70;50.30;;;;;;5053203;28;20049;-85
2022/06/12 11:26:02;;;;;;;5.38;3.20;;;33.50;50.80;;;;;;5052074;28;20031;-83
2022/06/12 11:28:42;;;;;;;7.97;3.22;;;33.40;50.60;;;;;;5053448;28;20043;-84
2022/06/12 11:31:24;;;;;;;;;;;33.40;49.80;;;;;;5052785;28;20400;-79
2022/06/12 11:34:01;;;;;;;4.57;3.20;;;33.40;50.10;;;;;;5052129;28;19905;-86
2022/06/12 11:37:03;;;;;;;4.82;3.10;;;33.30;49.40;;;;;;5051994;28;20028;-86
2022/06/12 11:39:32;;;;;;;5.30;3.17;;;33.30;50.70;;;;;;5031374;28;20129;-79
2022/06/12 11:42:20;;;;;;;7.05;3.10;;;33.60;50.20;;;;;;5014774;28;20491;-83
2022/06/12 11:45:00;;;;;;;4.20;3.13;;;33.90;49.90;;;;;;5031211;28;20052;-84
2022/06/12 11:47:34;;;;;;;6.03;3.20;;;33.80;50.00;;;;;;5014864;28;20021;-84
2022/06/12 11:50:00;;;;;;;6.30;3.28;;;33.90;49.70;;;;;;5014835;28;20025;-84
2022/06/12 11:52:54;;;;;;;9.57;3.42;;;34.00;49.90;;;;;;5014675;28;20056;-87
2022/06/12 11:55:26;;;;;;;4.88;3.30;;;34.00;50.20;;;;;;5031238;28;20128;-84
2022/06/12 11:58:01;;;;;;;5.25;2.92;;;33.50;49.10;;;;;;5014911;28;20018;-91
2022/06/12 12:00:35;;;;;;;4.63;3.30;;;33.40;50.30;;;;;;5014476;28;20082;-87
2022/06/12 12:03:54;;;;;;;5.18;3.30;;;33.40;49.90;;;;;;5015097;28;20454;-84
2022/06/12 12:06:38;;;;;;;4.90;3.20;;;33.60;50.50;;;;;;4976083;28;20034;-86
2022/06/12 12:09:35;;;;;;;5.55;3.22;;;33.90;49.50;;;;;;4976139;28;20051;-83
2022/06/12 12:12:09;;;;;;;6.13;3.03;;;33.80;50.40;;;;;;4975550;28;20128;-86
2022/06/12 12:14:38;;;;;;;6.20;3.30;;;34.00;49.80;;;;;;4971079;28;20404;-87
2022/06/12 12:17:15;;;;;;;4.85;3.28;;;34.00;50.10;;;;;;4998454;28;20026;-86
2022/06/12 12:19:45;;;;;;;4.82;3.10;;;33.80;50.20;;;;;;4998661;28;20030;-83
2022/06/12 12:22:36;;;;;;;4.22;3.33;;;34.10;49.90;;;;;;5014919;28;20400;-83
2022/06/12 12:25:24;;;;;;;5.68;3.72;;;34.20;49.40;;;;;;4998340;28;20026;-79
2022/06/12 12:27:53;;;;;;;4.40;3.10;;;33.90;48.70;;;;;;5014507;28;20042;-81
2022/06/12 12:30:26;;;;;;;4.20;2.75;;;33.00;50.70;;;;;;4998614;28;20469;-85
2022/06/12 12:32:55;;;;;;;4.47;3.35;;;32.90;50.60;;;;;;4997995;28;20096;-85
2022/06/12 12:41:37;;;;;;;6.85;3.72;;;31.90;50.70;;;;;;5051051;28;20052;-84
2022/06/12 12:44:06;;;;;;;7.70;3.40;;;32.40;52.80;;;;;;5053960;28;20115;-82
2022/06/12 12:46:47;;;;;;;4.72;2.88;;;33.00;51.10;;;;;;5054997;28;20410;-86
2022/06/12 12:49:39;;;;;;;4.90;3.28;;;33.50;51.10;;;;;;5056012;28;20028;-80
2022/06/12 12:52:15;;;;;;;4.93;3.47;;;33.50;49.60;;;;;;5052836;28;20070;-82
2022/06/12 12:54:58;;;;;;;5.43;3.40;;;33.80;51.90;;;;;;5054707;28;20383;-83
2022/06/12 12:57:39;;;;;;;6.80;3.20;;;34.10;51.50;;;;;;5055071;28;20036;-81
2022/06/12 13:00:19;;;;;;;4.65;3.25;;;34.40;50.60;;;;;;5054637;28;20482;-85
2022/06/12 13:02:56;;;;;;;5.53;3.30;;;34.20;49.70;;;;;;5054512;28;20060;-86
2022/06/12 13:05:34;;;;;;;6.10;3.40;;;34.10;49.30;;;;;;5054342;28;20040;-86
2022/06/12 13:08:16;;;;;;;4.90;3.38;;;34.30;51.00;;;;;;5054323;28;20028;-81
2022/06/12 13:11:17;;;;;;;6.13;3.38;;;34.30;50.40;;;;;;5054570;28;20031;-84
2022/06/12 13:13:55;;;;;;;11.43;3.65;;;34.30;50.20;;;;;;5054807;28;20029;-79
2022/06/12 13:16:42;;;;;;;4.68;3.17;;;34.20;50.50;;;;;;5054936;28;20025;-81
2022/06/12 13:19:19;;;;;;;4.88;3.10;;;34.10;49.80;;;;;;5054214;28;20541;-80
2022/06/12 13:22:12;;;;;;;8.00;3.28;;;33.60;48.50;;;;;;5054909;28;20136;-88
2022/06/12 13:25:07;;;;;;;6.85;3.15;;;33.00;50.00;;;;;;5054709;28;20029;-85
2022/06/12 13:27:46;;;;;;;6.78;3.35;;;33.20;50.80;;;;;;5054018;28;20090;-86
2022/06/12 13:30:24;;;;;;;4.68;3.30;;;33.50;50.70;;;;;;5054151;28;20455;-88
2022/06/12 13:32:51;;;;;;;5.82;3.22;;;33.30;50.10;;;;;;5054343;28;20429;-84
2022/06/12 13:35:54;;;;;;;5.60;3.30;;;33.40;50.40;;;;;;5054192;28;20017;-83
2022/06/12 13:38:29;;;;;;;4.40;3.20;;;33.50;50.30;;;;;;5048946;28;20037;-86
2022/06/12 13:40:57;;;;;;;7.60;3.47;;;33.50;50.80;;;;;;5053932;28;20040;-83
2022/06/12 13:43:31;;;;;;;9.95;3.58;;;33.80;50.30;;;;;;5055062;28;20016;-91